Back to Top

Language: 

My Weather Underground Personal Weather Station Historical Data with Graphs...

Delerius Weather Station Historical Data
Daily Summary for September 2, 2017 Units:  Metric    English   Both
« Previous Day
Next Day »
Daily Weekly Monthly Yearly Custom
  High: Low: Average:
Temperature: 19.7 °C 7.1 °C 13.9 °C
Dew Point: 12.8 °C 6.3 °C 9.8 °C
Humidity: 97 % 56 % 78 %
Wind Speed: 14.5 km/h 0 km/h 2.4 km/h
Wind Gust: 20.9 km/h - -
Wind:- - SSW
Pressure: 1023.2 hPa 1016.8 hPa -
Precipitation: 0.25 mm    
Historical Graphs
 
 
Tabular Data for September 2, 2017
Time Temperature Dew Point Pressure Wind Wind Speed Wind Gust Humidity Rainfall Rate (Hourly) solar Conditions
00:04 12.7 °C 11.6 °C 1023.2 hPa Calm     93 % 0 mm 0 W/m2
00:09 12.6 °C 11.5 °C 1023.2 hPa Calm     93 % 0 mm 0 W/m2
00:14 12.4 °C 11.3 °C 1023.2 hPa Calm     93 % 0 mm 0 W/m2
00:19 12.3 °C 11.2 °C 1023.2 hPa Calm     93 % 0 mm 0 W/m2
00:24 12.2 °C 11.1 °C 1023.2 hPa Calm     93 % 0 mm 0 W/m2
00:29 12.1 °C 11 °C 1023.2 hPa Calm     93 % 0 mm 0 W/m2
00:30 12.1 °C 11 °C 1023.2 hPa Calm     93 % 0 mm 0 W/m2
00:35 11.9 °C 10.8 °C 1023.2 hPa Calm     93 % 0 mm 0 W/m2
00:40 11.8 °C 10.7 °C 1023.2 hPa Calm     93 % 0 mm 0 W/m2
00:45 11.8 °C 10.7 °C 1023.2 hPa Calm     93 % 0 mm 0 W/m2
00:50 11.8 °C 10.9 °C 1023.2 hPa Calm   1.6 km/h 94 % 0 mm 0 W/m2
00:55 11.7 °C 10.8 °C 1023.2 hPa Calm   1.6 km/h 94 % 0 mm 0 W/m2
01:00 11.7 °C 10.8 °C 1023.2 hPa Calm     94 % 0 mm 0 W/m2
01:05 11.6 °C 10.7 °C 1023.2 hPa Calm   3.2 km/h 94 % 0 mm 0 W/m2
01:10 11.6 °C 10.7 °C 1023.2 hPa Calm   3.2 km/h 94 % 0 mm 0 W/m2
01:15 11.5 °C 10.6 °C 1023.2 hPa Calm   1.6 km/h 94 % 0 mm 0 W/m2
01:20 11.4 °C 10.4 °C 1023.2 hPa Calm     94 % 0 mm 0 W/m2
01:25 11.3 °C 10.4 °C 1023.2 hPa Calm     94 % 0 mm 0 W/m2
01:30 11.3 °C 10.4 °C 1023.2 hPa Calm   3.2 km/h 94 % 0 mm 0 W/m2
01:35 11.2 °C 10.3 °C 1023.2 hPa Calm   3.2 km/h 94 % 0 mm 0 W/m2
01:40 11.2 °C 10.3 °C 1023.2 hPa Calm   3.2 km/h 94 % 0 mm 0 W/m2
01:45 11.1 °C 10.2 °C 1023.2 hPa Calm     94 % 0 mm 0 W/m2
01:50 11 °C 10.1 °C 1023.2 hPa Calm     94 % 0 mm 0 W/m2
01:55 10.9 °C 9.9 °C 1023.2 hPa Calm     94 % 0 mm 0 W/m2
02:00 10.8 °C 9.9 °C 1023.2 hPa Calm     94 % 0 mm 0 W/m2
02:05 10.7 °C 9.8 °C 1023.2 hPa Calm     94 % 0 mm 0 W/m2
02:10 10.6 °C 9.7 °C 1023.2 hPa Calm     94 % 0 mm 0 W/m2
02:15 10.5 °C 9.6 °C 1023.2 hPa Calm     94 % 0 mm 0 W/m2
02:20 10.4 °C 9.5 °C 1023.2 hPa Calm     94 % 0 mm 0 W/m2
02:25 10.3 °C 9.4 °C 1023.2 hPa Calm     94 % 0 mm 0 W/m2
02:30 10.2 °C 9.3 °C 1023.2 hPa Calm   3.2 km/h 94 % 0 mm 0 W/m2
02:35 10.2 °C 9.3 °C 1023.2 hPa Calm   3.2 km/h 94 % 0 mm 0 W/m2
02:40 10.1 °C 9.2 °C 1023.2 hPa Calm     94 % 0 mm 0 W/m2
02:45 10 °C 9.1 °C 1023.2 hPa Calm     94 % 0 mm 0 W/m2
02:50 9.9 °C 9 °C 1023.2 hPa Calm     94 % 0 mm 0 W/m2
02:55 9.8 °C 8.9 °C 1023.2 hPa Calm   1.6 km/h 94 % 0 mm 0 W/m2
03:00 9.7 °C 8.8 °C 1022.9 hPa Calm   1.6 km/h 94 % 0 mm 0 W/m2
03:05 9.6 °C 8.8 °C 1023.2 hPa Calm   1.6 km/h 95 % 0 mm 0 W/m2
03:11 9.6 °C 8.7 °C 1022.9 hPa Calm   3.2 km/h 94 % 0 mm 0 W/m2
03:16 9.6 °C 8.8 °C 1023.2 hPa Calm   3.2 km/h 95 % 0 mm 0 W/m2
03:21 9.4 °C 8.5 °C 1023.2 hPa Calm     94 % 0 mm 0 W/m2
03:26 9.3 °C 8.4 °C 1022.9 hPa Calm     94 % 0 mm 0 W/m2
03:31 9.2 °C 8.3 °C 1022.9 hPa Calm     94 % 0 mm 0 W/m2
03:36 9.1 °C 8.2 °C 1022.9 hPa Calm     94 % 0 mm 0 W/m2
03:41 8.9 °C 8 °C 1022.9 hPa Calm     94 % 0 mm 0 W/m2
03:46 8.8 °C 7.9 °C 1022.9 hPa Calm   3.2 km/h 94 % 0 mm 0 W/m2
03:51 8.8 °C 7.9 °C 1022.9 hPa Calm   3.2 km/h 94 % 0 mm 0 W/m2
03:56 8.8 °C 8.1 °C 1022.9 hPa Calm   3.2 km/h 95 % 0 mm 0 W/m2
04:01 8.8 °C 8.1 °C 1022.9 hPa Calm     95 % 0 mm 0 W/m2
04:06 8.7 °C 7.9 °C 1022.9 hPa Calm     95 % 0 mm 0 W/m2
04:11 8.6 °C 7.8 °C 1022.9 hPa Calm     95 % 0 mm 0 W/m2
04:16 8.5 °C 7.7 °C 1022.6 hPa Calm     95 % 0 mm 0 W/m2
04:21 8.4 °C 7.7 °C 1022.6 hPa Calm     95 % 0 mm 0 W/m2
04:23 8.4 °C 7.7 °C 1022.6 hPa Calm     95 % 0 mm 0 W/m2
04:24 8.4 °C 7.7 °C 1022.6 hPa Calm     95 % 0 mm 0 W/m2
04:25 8.4 °C 7.7 °C 1022.6 hPa Calm     95 % 0 mm 0 W/m2
04:30 8.3 °C 7.6 °C 1022.6 hPa Calm     95 % 0 mm 0 W/m2
04:33 8.3 °C 7.6 °C 1022.6 hPa Calm     95 % 0 mm 0 W/m2
04:35 8.3 °C 7.6 °C 1022.6 hPa Calm     95 % 0 mm 0 W/m2
04:36 8.2 °C 7.4 °C 1022.6 hPa Calm     95 % 0 mm 0 W/m2
04:41 8.2 °C 7.4 °C 1022.6 hPa Calm     95 % 0 mm 0 W/m2
04:46 8.1 °C 7.3 °C 1022.6 hPa Calm     95 % 0 mm 0 W/m2
04:51 8 °C 7.2 °C 1022.2 hPa Calm     95 % 0 mm 0 W/m2
04:56 8 °C 7.2 °C 1022.6 hPa Calm     95 % 0 mm 0 W/m2
05:01 7.9 °C 7.2 °C 1022.6 hPa Calm     95 % 0 mm 0 W/m2
05:06 7.8 °C 7.1 °C 1022.2 hPa Calm     95 % 0 mm 0 W/m2
05:11 7.8 °C 7.1 °C 1022.2 hPa Calm     95 % 0 mm 0 W/m2
05:16 7.7 °C 6.9 °C 1022.6 hPa Calm     95 % 0 mm 0 W/m2
05:20 7.7 °C 6.9 °C 1022.6 hPa Calm     95 % 0 mm 0 W/m2
05:25 7.6 °C 6.8 °C 1022.6 hPa Calm     95 % 0 mm 0 W/m2
05:30 7.6 °C 6.8 °C 1022.6 hPa Calm     95 % 0 mm 0 W/m2
05:35 7.6 °C 7 °C 1022.6 hPa Calm     96 % 0 mm 0 W/m2
05:40 7.7 °C 7.1 °C 1022.6 hPa Calm     96 % 0 mm 0 W/m2
05:45 7.8 °C 7.2 °C 1022.6 hPa Calm     96 % 0 mm 0 W/m2
05:50 7.8 °C 7.2 °C 1022.6 hPa Calm     96 % 0 mm 0 W/m2
05:55 7.8 °C 7.2 °C 1022.6 hPa Calm     96 % 0 mm 0 W/m2
06:00 7.7 °C 7.1 °C 1022.6 hPa Calm     96 % 0 mm 0 W/m2
06:05 7.6 °C 6.8 °C 1022.6 hPa Calm     95 % 0 mm 0 W/m2
06:10 7.5 °C 6.9 °C 1022.6 hPa Calm     96 % 0 mm 0 W/m2
06:15 7.4 °C 6.7 °C 1022.6 hPa Calm     95 % 0 mm 0 W/m2
06:20 7.3 °C 6.6 °C 1022.6 hPa Calm     95 % 0 mm 5 W/m2
06:25 7.2 °C 6.4 °C 1022.6 hPa Calm     95 % 0 mm 9 W/m2
06:30 7.1 °C 6.5 °C 1022.6 hPa Calm     96 % 0 mm 11 W/m2
06:35 7.1 °C 6.3 °C 1022.6 hPa Calm     95 % 0 mm 14 W/m2
06:40 7.1 °C 6.5 °C 1022.6 hPa Calm     96 % 0 mm 16 W/m2
06:50 7.1 °C 6.5 °C 1022.2 hPa Calm     96 % 0.25 mm 21 W/m2
06:55 7.1 °C 6.5 °C 1022.6 hPa Calm     96 % 0.25 mm 23 W/m2
07:00 7.1 °C 6.5 °C 1022.6 hPa Calm     96 % 0.25 mm 32 W/m2
07:05 7.2 °C 6.6 °C 1022.6 hPa Calm     96 % 0.25 mm 35 W/m2
07:10 7.3 °C 6.7 °C 1022.6 hPa Calm     96 % 0.25 mm 46 W/m2
07:15 7.6 °C 7.2 °C 1022.6 hPa Calm     97 % 0.25 mm 97 W/m2
07:20 7.9 °C 7.4 °C 1022.6 hPa Calm     97 % 0.25 mm 111 W/m2
07:25 8 °C 7.6 °C 1022.6 hPa Calm     97 % 0.25 mm 121 W/m2
07:31 8.1 °C 7.7 °C 1022.6 hPa Calm     97 % 0.25 mm 135 W/m2
07:36 8.3 °C 7.8 °C 1022.6 hPa Calm     97 % 0.25 mm 148 W/m2
07:41 8.5 °C 8.1 °C 1022.6 hPa Calm     97 % 0.25 mm 162 W/m2
07:46 8.7 °C 8.3 °C 1022.6 hPa Calm     97 % 0 mm 84 W/m2
07:51 8.9 °C 8.4 °C 1022.6 hPa Calm     97 % 0 mm 44 W/m2
07:56 9.1 °C 8.7 °C 1022.6 hPa Calm     97 % 0 mm 162 W/m2
08:01 9.3 °C 8.8 °C 1022.6 hPa Calm     97 % 0 mm 199 W/m2
08:06 9.6 °C 9.2 °C 1022.6 hPa Calm     97 % 0 mm 225 W/m2
08:11 9.9 °C 9.4 °C 1022.6 hPa Calm     97 % 0 mm 239 W/m2
08:16 10.1 °C 9.7 °C 1022.6 hPa Calm     97 % 0 mm 253 W/m2
08:21 10.4 °C 9.9 °C 1022.6 hPa Calm     97 % 0 mm 269 W/m2
08:26 10.9 °C 10.4 °C 1022.6 hPa Calm     97 % 0 mm 283 W/m2
08:31 11.6 °C 11.2 °C 1022.6 hPa Calm     97 % 0 mm 295 W/m2
08:36 11.9 °C 11.4 °C 1022.6 hPa Calm     97 % 0 mm 306 W/m2
08:41 12.4 °C 11.9 °C 1022.6 hPa Calm     97 % 0 mm 322 W/m2
08:46 12.9 °C 12.1 °C 1022.6 hPa Calm   1.6 km/h 95 % 0 mm 339 W/m2
08:51 13.2 °C 12.1 °C 1022.6 hPa Calm   1.6 km/h 93 % 0 mm 352 W/m2
08:56 13.6 °C 12.2 °C 1022.6 hPa Calm     91 % 0 mm 367 W/m2
09:01 13.8 °C 12 °C 1022.6 hPa Calm     89 % 0 mm 127 W/m2
09:06 13.8 °C 11.7 °C 1022.6 hPa Calm     87 % 0 mm 156 W/m2
09:11 13.8 °C 11.7 °C 1022.6 hPa Calm     87 % 0 mm 144 W/m2
09:16 13.9 °C 11.6 °C 1022.6 hPa Calm   1.6 km/h 86 % 0 mm 192 W/m2
09:21 14 °C 11.7 °C 1022.6 hPa Calm   1.6 km/h 86 % 0 mm 267 W/m2
09:27 14.1 °C 11.6 °C 1022.6 hPa Calm     85 % 0 mm 199 W/m2
09:32 14.2 °C 11.7 °C 1022.6 hPa Calm     85 % 0 mm 436 W/m2
09:37 14.5 °C 12 °C 1022.6 hPa Calm     85 % 0 mm 512 W/m2
09:42 14.7 °C 12 °C 1022.6 hPa Calm   1.6 km/h 84 % 0 mm 559 W/m2
09:47 15.2 °C 12.3 °C 1022.6 hPa Calm   1.6 km/h 83 % 0 mm 478 W/m2
09:52 15.6 °C 12.6 °C 1022.6 hPa Calm   1.6 km/h 82 % 0 mm 563 W/m2
09:57 15.9 °C 12.1 °C 1022.6 hPa Calm   1.6 km/h 78 % 0 mm 360 W/m2
10:02 16.2 °C 12.2 °C 1022.2 hPa Calm   1.6 km/h 77 % 0 mm 367 W/m2
10:07 16.3 °C 12.3 °C 1022.2 hPa SSW 1.6 km/h 8 km/h 77 % 0 mm 422 W/m2
10:12 16.3 °C 12.3 °C 1022.2 hPa SSW 1.6 km/h 8 km/h 77 % 0 mm 373 W/m2
10:17 16.5 °C 12.3 °C 1022.6 hPa SSW 1.6 km/h 6.4 km/h 76 % 0 mm 677 W/m2
10:22 16.7 °C 12.8 °C 1022.2 hPa South 3.2 km/h 8 km/h 78 % 0 mm 708 W/m2
10:27 16.9 °C 12.7 °C 1022.2 hPa SSE 3.2 km/h 8 km/h 76 % 0 mm 589 W/m2
10:32 17.1 °C 12.6 °C 1022.2 hPa SE 1.6 km/h 8 km/h 75 % 0 mm 729 W/m2
10:37 17.4 °C 12.5 °C 1022.2 hPa SSE 1.6 km/h 8 km/h 73 % 0 mm 758 W/m2
10:42 17.7 °C 12.4 °C 1022.2 hPa SSE 1.6 km/h 8 km/h 71 % 0 mm 345 W/m2
10:47 17.7 °C 12.4 °C 1022.2 hPa South 3.2 km/h 8 km/h 71 % 0 mm 485 W/m2
10:52 17.6 °C 12.1 °C 1022.2 hPa South 3.2 km/h 9.7 km/h 70 % 0 mm 309 W/m2
10:57 17.7 °C 11.9 °C 1022.2 hPa South 1.6 km/h 9.7 km/h 69 % 0 mm 809 W/m2
11:02 17.9 °C 12.1 °C 1022.2 hPa SSW 1.6 km/h 9.7 km/h 69 % 0 mm 288 W/m2
11:07 17.8 °C 11.8 °C 1022.2 hPa SW 3.2 km/h 8 km/h 68 % 0 mm 163 W/m2
11:12 17.7 °C 11.7 °C 1021.9 hPa SW 4.8 km/h 9.7 km/h 68 % 0 mm 197 W/m2
11:17 17.6 °C 11.4 °C 1021.9 hPa WSW 3.2 km/h 9.7 km/h 67 % 0 mm 207 W/m2
11:22 17.6 °C 11.6 °C 1021.9 hPa WNW 3.2 km/h 8 km/h 68 % 0 mm 306 W/m2
11:27 17.7 °C 11.3 °C 1021.9 hPa WNW 3.2 km/h 8 km/h 66 % 0 mm 258 W/m2
11:32 17.7 °C 10.6 °C 1021.9 hPa WNW 1.6 km/h 8 km/h 63 % 0 mm 232 W/m2
11:37 17.6 °C 10.4 °C 1021.9 hPa Calm   6.4 km/h 63 % 0 mm 207 W/m2
11:42 17.6 °C 10.9 °C 1021.9 hPa Calm   1.6 km/h 65 % 0 mm 188 W/m2
11:47 17.6 °C 10.7 °C 1021.9 hPa Calm   6.4 km/h 64 % 0 mm 156 W/m2
11:52 17.6 °C 10.7 °C 1021.9 hPa WNW 1.6 km/h 6.4 km/h 64 % 0 mm 163 W/m2
11:57 17.7 °C 10.6 °C 1021.9 hPa Calm   6.4 km/h 63 % 0 mm 178 W/m2
12:02 17.6 °C 10.2 °C 1021.6 hPa WNW 1.6 km/h 6.4 km/h 62 % 0 mm 218 W/m2
12:07 17.4 °C 10.5 °C 1021.6 hPa WNW 1.6 km/h 4.8 km/h 64 % 0 mm 246 W/m2
12:12 17.4 °C 10.7 °C 1021.6 hPa WNW 1.6 km/h 4.8 km/h 65 % 0 mm 323 W/m2
12:17 17.6 °C 11.2 °C 1021.6 hPa WNW 1.6 km/h 6.4 km/h 66 % 0 mm 749 W/m2
12:22 17.7 °C 10.8 °C 1021.6 hPa WNW 1.6 km/h 8 km/h 64 % 0 mm 485 W/m2
12:28 17.8 °C 10.7 °C 1021.6 hPa WNW 1.6 km/h 8 km/h 63 % 0 mm 278 W/m2
12:33 17.9 °C 10.3 °C 1021.2 hPa WNW 1.6 km/h 6.4 km/h 61 % 0 mm 707 W/m2
12:38 18.2 °C 10.6 °C 1021.2 hPa Calm   6.4 km/h 61 % 0 mm 849 W/m2
12:43 18.3 °C 10.4 °C 1021.2 hPa SSW 1.6 km/h 9.7 km/h 60 % 0 mm 663 W/m2
12:48 18.5 °C 11.1 °C 1021.2 hPa South 4.8 km/h 12.9 km/h 62 % 0 mm 842 W/m2
12:53 18.8 °C 10.9 °C 1021.2 hPa SSE 4.8 km/h 12.9 km/h 60 % 0 mm 889 W/m2
12:58 19.2 °C 11.5 °C 1021.2 hPa SE 4.8 km/h 11.3 km/h 61 % 0 mm 905 W/m2
13:03 19.2 °C 11 °C 1021.2 hPa SE 4.8 km/h 11.3 km/h 59 % 0 mm 287 W/m2
13:08 19 °C 11.3 °C 1021.2 hPa SE 3.2 km/h 12.9 km/h 61 % 0 mm 244 W/m2
13:13 18.6 °C 10.7 °C 1021.2 hPa ESE 4.8 km/h 12.9 km/h 60 % 0 mm 190 W/m2
13:18 18.4 °C 10.7 °C 1021.2 hPa East 3.2 km/h 11.3 km/h 61 % 0 mm 141 W/m2
13:23 18.3 °C 10.9 °C 1021.2 hPa East 3.2 km/h 9.7 km/h 62 % 0 mm 151 W/m2
13:28 18.3 °C 11.4 °C 1021.2 hPa East 1.6 km/h 8 km/h 64 % 0 mm 176 W/m2
13:33 18.2 °C 11.1 °C 1020.9 hPa East 3.2 km/h 9.7 km/h 63 % 0 mm 246 W/m2
13:38 18.2 °C 11.3 °C 1020.9 hPa East 1.6 km/h 9.7 km/h 64 % 0 mm 244 W/m2
13:43 18.3 °C 11.1 °C 1020.9 hPa East 1.6 km/h 8 km/h 63 % 0 mm 213 W/m2
13:48 18.2 °C 11.1 °C 1020.9 hPa East 1.6 km/h 8 km/h 63 % 0 mm 274 W/m2
13:53 18.2 °C 11.3 °C 1020.9 hPa East 1.6 km/h 6.4 km/h 64 % 0 mm 339 W/m2
13:58 18.3 °C 11.1 °C 1020.5 hPa East 1.6 km/h 6.4 km/h 63 % 0 mm 875 W/m2
14:03 18.7 °C 11.3 °C 1020.5 hPa SSE 3.2 km/h 12.9 km/h 62 % 0 mm 369 W/m2
14:08 18.9 °C 11.2 °C 1020.5 hPa SE 6.4 km/h 16.1 km/h 61 % 0 mm 814 W/m2
14:13 19.1 °C 11.2 °C 1020.5 hPa SE 8 km/h 16.1 km/h 60 % 0 mm 823 W/m2
14:18 19.2 °C 11.2 °C 1020.5 hPa SE 6.4 km/h 14.5 km/h 60 % 0 mm 195 W/m2
14:23 19.2 °C 11 °C 1020.2 hPa South 4.8 km/h 12.9 km/h 59 % 0 mm 253 W/m2
14:28 19.1 °C 11.2 °C 1020.2 hPa South 8 km/h 19.3 km/h 60 % 0 mm 772 W/m2
14:33 19.3 °C 11.3 °C 1020.2 hPa SSE 8 km/h 19.3 km/h 60 % 0 mm 816 W/m2
14:38 19.6 °C 11.1 °C 1019.9 hPa SE 8 km/h 19.3 km/h 58 % 0 mm 814 W/m2
14:43 19.7 °C 11.2 °C 1020.2 hPa SE 9.7 km/h 19.3 km/h 58 % 0 mm 269 W/m2
14:48 19.7 °C 11.2 °C 1019.9 hPa SE 11.3 km/h 19.3 km/h 58 % 0 mm 274 W/m2
14:53 19.6 °C 11.4 °C 1019.9 hPa SE 9.7 km/h 19.3 km/h 59 % 0 mm 269 W/m2
14:58 19.6 °C 11.4 °C 1019.9 hPa SE 8 km/h 16.1 km/h 59 % 0 mm 325 W/m2
15:03 19.5 °C 10.8 °C 1019.9 hPa SSE 8 km/h 16.1 km/h 57 % 0 mm 315 W/m2
15:08 19.5 °C 11 °C 1019.9 hPa SSE 4.8 km/h 12.9 km/h 58 % 0 mm 274 W/m2
15:13 19.4 °C 11.4 °C 1019.5 hPa SE 4.8 km/h 11.3 km/h 60 % 0 mm 272 W/m2
15:18 19.4 °C 10.9 °C 1019.9 hPa South 6.4 km/h 14.5 km/h 58 % 0 mm 204 W/m2
15:23 19.3 °C 10.8 °C 1019.5 hPa South 6.4 km/h 14.5 km/h 58 % 0 mm 183 W/m2
15:28 19.1 °C 10.7 °C 1019.5 hPa South 6.4 km/h 14.5 km/h 58 % 0 mm 232 W/m2
15:33 19.1 °C 10.9 °C 1019.5 hPa South 6.4 km/h 14.5 km/h 59 % 0 mm 230 W/m2
15:38 19.2 °C 11 °C 1019.5 hPa SSE 6.4 km/h 16.1 km/h 59 % 0 mm 239 W/m2
15:43 19.3 °C 11.1 °C 1019.2 hPa SSE 9.7 km/h 16.1 km/h 59 % 0 mm 715 W/m2
15:48 19.4 °C 11.2 °C 1019.5 hPa SSE 11.3 km/h 19.3 km/h 59 % 0 mm 220 W/m2
15:53 19.3 °C 11.1 °C 1019.2 hPa SSE 9.7 km/h 19.3 km/h 59 % 0 mm 176 W/m2
15:58 19.2 °C 11 °C 1019.2 hPa South 9.7 km/h 19.3 km/h 59 % 0 mm 193 W/m2
16:03 19.2 °C 11 °C 1019.2 hPa South 9.7 km/h 17.7 km/h 59 % 0 mm 185 W/m2
16:04 19.2 °C 10.7 °C 1019.2 hPa South 9.7 km/h 16.1 km/h 58 % 0 mm 183 W/m2
16:09 19.1 °C 10.7 °C 1019.2 hPa South 8 km/h 14.5 km/h 58 % 0 mm 578 W/m2
16:14 19.2 °C 10.4 °C 1019.2 hPa South 8 km/h 12.9 km/h 57 % 0 mm 220 W/m2
16:19 19.3 °C 10.6 °C 1019.2 hPa SSW 9.7 km/h 20.9 km/h 57 % 0 mm 220 W/m2
16:24 19.1 °C 10.4 °C 1019.2 hPa SW 12.9 km/h 20.9 km/h 57 % 0 mm 236 W/m2
16:29 19.1 °C 10.9 °C 1019.2 hPa SW 14.5 km/h 20.9 km/h 59 % 0 mm 376 W/m2
16:34 19.2 °C 11.2 °C 1019.2 hPa SW 11.3 km/h 19.3 km/h 60 % 0 mm 561 W/m2
16:39 19.3 °C 11.3 °C 1018.8 hPa SW 11.3 km/h 19.3 km/h 60 % 0 mm 181 W/m2
16:44 19.2 °C 11 °C 1018.8 hPa SSW 11.3 km/h 17.7 km/h 59 % 0 mm 279 W/m2
16:49 19.2 °C 10.7 °C 1018.8 hPa SSW 11.3 km/h 16.1 km/h 58 % 0 mm 478 W/m2
16:54 19.3 °C 11.1 °C 1018.8 hPa SSW 8 km/h 14.5 km/h 59 % 0 mm 450 W/m2
16:59 19.4 °C 10.9 °C 1018.8 hPa SSW 8 km/h 12.9 km/h 58 % 0 mm 272 W/m2
17:04 19.3 °C 10.8 °C 1018.8 hPa SSW 9.7 km/h 12.9 km/h 58 % 0 mm 146 W/m2
17:09 19.1 °C 10.9 °C 1018.8 hPa SSW 8 km/h 12.9 km/h 59 % 0 mm 202 W/m2
17:14 18.9 °C 10.7 °C 1018.8 hPa SSW 6.4 km/h 14.5 km/h 59 % 0 mm 156 W/m2
17:19 18.9 °C 10.4 °C 1018.5 hPa SSW 8 km/h 14.5 km/h 58 % 0 mm 183 W/m2
17:25 18.9 °C 10.4 °C 1018.5 hPa SW 9.7 km/h 20.9 km/h 58 % 0 mm 250 W/m2
17:30 19.1 °C 10.7 °C 1018.5 hPa WSW 11.3 km/h 20.9 km/h 58 % 0 mm 339 W/m2
17:35 19.4 °C 10.4 °C 1018.5 hPa WSW 12.9 km/h 17.7 km/h 56 % 0 mm 385 W/m2
17:40 19.4 °C 10.4 °C 1018.5 hPa SW 12.9 km/h 19.3 km/h 56 % 0 mm 304 W/m2
17:50 19.3 °C 10.6 °C 1018.5 hPa SSW 9.7 km/h 16.1 km/h 57 % 0 mm 262 W/m2
17:55 19.3 °C 10.6 °C 1018.5 hPa SSW 9.7 km/h 16.1 km/h 57 % 0 mm 258 W/m2
18:00 19.2 °C 10.4 °C 1018.2 hPa SSW 9.7 km/h 16.1 km/h 57 % 0 mm 244 W/m2
18:05 19.2 °C 10.4 °C 1018.2 hPa SW 8 km/h 12.9 km/h 57 % 0 mm 221 W/m2
18:10 19.1 °C 10.4 °C 1018.2 hPa SW 9.7 km/h 17.7 km/h 57 % 0 mm 204 W/m2
18:15 19.1 °C 10.4 °C 1018.2 hPa SSW 9.7 km/h 17.7 km/h 57 % 0 mm 190 W/m2
18:20 19.1 °C 10.4 °C 1018.2 hPa SSW 8 km/h 17.7 km/h 57 % 0 mm 178 W/m2
18:25 19 °C 10 °C 1018.2 hPa SSW 9.7 km/h 16.1 km/h 56 % 0 mm 162 W/m2
18:30 18.9 °C 10.2 °C 1018.2 hPa SSW 9.7 km/h 16.1 km/h 57 % 0 mm 149 W/m2
18:35 18.9 °C 9.9 °C 1018.2 hPa SSW 9.7 km/h 16.1 km/h 56 % 0 mm 135 W/m2
18:40 18.8 °C 9.8 °C 1018.2 hPa SSW 9.7 km/h 16.1 km/h 56 % 0 mm 123 W/m2
18:45 18.7 °C 10 °C 1018.2 hPa SSW 9.7 km/h 16.1 km/h 57 % 0 mm 107 W/m2
18:50 18.6 °C 9.7 °C 1017.8 hPa SSW 9.7 km/h 14.5 km/h 56 % 0 mm 58 W/m2
18:55 18.4 °C 10 °C 1017.8 hPa SW 8 km/h 14.5 km/h 58 % 0 mm 46 W/m2
19:00 18.3 °C 9.9 °C 1017.8 hPa SW 8 km/h 11.3 km/h 58 % 0 mm 35 W/m2
19:05 18.1 °C 9.9 °C 1017.8 hPa SSW 6.4 km/h 11.3 km/h 59 % 0 mm 25 W/m2
19:10 17.8 °C 9.7 °C 1017.8 hPa SSW 6.4 km/h 11.3 km/h 59 % 0 mm 32 W/m2
19:15 17.7 °C 9.8 °C 1017.8 hPa SSW 4.8 km/h 9.7 km/h 60 % 0 mm 28 W/m2
19:20 17.5 °C 9.9 °C 1017.8 hPa SSW 3.2 km/h 9.7 km/h 61 % 0 mm 18 W/m2
19:25 17.4 °C 9.8 °C 1017.8 hPa SSW 1.6 km/h 8 km/h 61 % 0 mm 14 W/m2
19:30 17.2 °C 9.8 °C 1017.8 hPa SSW 1.6 km/h 8 km/h 62 % 0 mm 11 W/m2
19:31 17.2 °C 9.8 °C 1017.8 hPa SSW 1.6 km/h 8 km/h 62 % 0 mm 11 W/m2
19:36 17.1 °C 9.8 °C 1017.8 hPa SSW 1.6 km/h 8 km/h 62 % 0 mm 9 W/m2
19:41 16.9 °C 9.8 °C 1017.8 hPa SSW 1.6 km/h 6.4 km/h 63 % 0 mm 7 W/m2
19:46 16.8 °C 9.9 °C 1017.8 hPa SSW 3.2 km/h 6.4 km/h 64 % 0 mm 5 W/m2
19:51 16.6 °C 10 °C 1017.8 hPa SSW 1.6 km/h 6.4 km/h 65 % 0 mm 0 W/m2
19:56 16.4 °C 10.1 °C 1017.8 hPa SSW 1.6 km/h 6.4 km/h 66 % 0 mm 0 W/m2
20:01 16.2 °C 10.1 °C 1017.8 hPa SSW 1.6 km/h 6.4 km/h 67 % 0 mm 0 W/m2
20:06 16 °C 9.9 °C 1017.8 hPa SSW 1.6 km/h 6.4 km/h 67 % 0 mm 0 W/m2
20:11 15.8 °C 9.7 °C 1017.8 hPa Calm   3.2 km/h 67 % 0 mm 0 W/m2
20:16 15.6 °C 9.7 °C 1017.8 hPa Calm   3.2 km/h 68 % 0 mm 0 W/m2
20:21 15.4 °C 9.7 °C 1017.8 hPa SSW 1.6 km/h 3.2 km/h 69 % 0 mm 0 W/m2
20:26 15.2 °C 9.8 °C 1017.8 hPa SSW 1.6 km/h 4.8 km/h 70 % 0 mm 0 W/m2
20:31 15.1 °C 9.7 °C 1017.8 hPa SSW 1.6 km/h 6.4 km/h 70 % 0 mm 0 W/m2
20:36 14.9 °C 9.7 °C 1017.8 hPa SW 1.6 km/h 6.4 km/h 71 % 0 mm 0 W/m2
20:41 14.8 °C 9.8 °C 1017.8 hPa SW 1.6 km/h 6.4 km/h 72 % 0 mm 0 W/m2
20:46 14.6 °C 9.6 °C 1017.8 hPa SW 1.6 km/h 4.8 km/h 72 % 0 mm 0 W/m2
20:51 14.5 °C 9.7 °C 1017.8 hPa SW 1.6 km/h 4.8 km/h 73 % 0 mm 0 W/m2
20:56 14.4 °C 9.6 °C 1017.8 hPa SW 1.6 km/h 4.8 km/h 73 % 0 mm 0 W/m2
21:01 14.2 °C 9.4 °C 1017.5 hPa Calm   3.2 km/h 73 % 0 mm 0 W/m2
21:06 14.1 °C 9.6 °C 1017.5 hPa Calm   3.2 km/h 74 % 0 mm 0 W/m2
21:11 14 °C 9.4 °C 1017.5 hPa Calm   1.6 km/h 74 % 0 mm 0 W/m2
21:16 13.8 °C 9.4 °C 1017.5 hPa Calm   1.6 km/h 75 % 0 mm 0 W/m2
21:21 13.7 °C 9.6 °C 1017.5 hPa Calm     76 % 0 mm 0 W/m2
21:26 13.4 °C 9.3 °C 1017.5 hPa Calm     76 % 0 mm 0 W/m2
21:31 13.3 °C 9.3 °C 1017.5 hPa Calm     77 % 0 mm 0 W/m2
21:36 13.1 °C 9.2 °C 1017.5 hPa Calm     77 % 0 mm 0 W/m2
21:41 12.9 °C 9.3 °C 1017.5 hPa Calm     79 % 0 mm 0 W/m2
21:46 12.7 °C 9.2 °C 1017.5 hPa Calm     79 % 0 mm 0 W/m2
21:48 12.6 °C 9.1 °C 1017.5 hPa Calm     79 % 0 mm 0 W/m2
21:53 12.4 °C 9.1 °C 1017.5 hPa Calm     80 % 0 mm 0 W/m2
21:58 12.2 °C 9.1 °C 1017.5 hPa Calm     81 % 0 mm 0 W/m2
22:03 12.1 °C 9.1 °C 1017.5 hPa Calm     82 % 0 mm 0 W/m2
22:08 11.9 °C 9.1 °C 1017.5 hPa Calm     83 % 0 mm 0 W/m2
22:13 11.7 °C 8.9 °C 1017.5 hPa Calm     83 % 0 mm 0 W/m2
22:18 11.6 °C 8.8 °C 1017.5 hPa Calm     83 % 0 mm 0 W/m2
22:23 11.4 °C 8.8 °C 1017.5 hPa Calm     84 % 0 mm 0 W/m2
22:28 11.3 °C 8.7 °C 1017.5 hPa Calm     84 % 0 mm 0 W/m2
22:33 11.2 °C 8.8 °C 1017.5 hPa Calm     85 % 0 mm 0 W/m2
22:38 11.1 °C 8.7 °C 1017.2 hPa Calm     85 % 0 mm 0 W/m2
22:43 11.1 °C 8.7 °C 1017.2 hPa Calm     85 % 0 mm 0 W/m2
22:48 10.9 °C 8.7 °C 1017.2 hPa Calm     86 % 0 mm 0 W/m2
22:53 10.8 °C 8.6 °C 1017.2 hPa Calm     86 % 0 mm 0 W/m2
22:58 10.7 °C 8.6 °C 1017.2 hPa Calm   3.2 km/h 87 % 0 mm 0 W/m2
23:03 10.6 °C 8.5 °C 1017.2 hPa Calm   3.2 km/h 87 % 0 mm 0 W/m2
23:08 10.6 °C 8.5 °C 1017.2 hPa Calm     87 % 0 mm 0 W/m2
23:13 10.4 °C 8.3 °C 1016.8 hPa Calm     87 % 0 mm 0 W/m2
23:19 10.4 °C 8.5 °C 1016.8 hPa Calm     88 % 0 mm 0 W/m2
23:24 10.3 °C 8.4 °C 1016.8 hPa Calm     88 % 0 mm 0 W/m2
23:29 10.2 °C 8.3 °C 1017.2 hPa Calm     88 % 0 mm 0 W/m2
23:34 10.2 °C 8.3 °C 1016.8 hPa Calm   3.2 km/h 88 % 0 mm 0 W/m2
23:39 10.2 °C 8.4 °C 1016.8 hPa Calm   3.2 km/h 89 % 0 mm 0 W/m2
23:44 10.1 °C 8.4 °C 1016.8 hPa Calm     89 % 0 mm 0 W/m2
23:49 10.1 °C 8.4 °C 1016.8 hPa Calm     89 % 0 mm 0 W/m2
23:54 10.1 °C 8.4 °C 1016.8 hPa Calm     89 % 0 mm 0 W/m2
23:59 9.9 °C 8.2 °C 1016.8 hPa Calm     89 % 0 mm 0 W/m2
Delerius-Weather
Compliments of Weather Underground - 2.25 mb

Data updates at regular intervals.